Time;durP1;ratioP1;P1;durP2;ratioP2;P2;SDS_P1;SDS_P2;PMS_P1;PMS_P2;Temp;Humidity;BMP_temperature;BMP_pressure;BME280_temperature;BME280_humidity;BME280_pressure;Samples;Min_cycle;Max_cycle;Signal;HPM_P1;HPM_P2
2022/09/07 00:00:38;;;;;;;;;;;;;;;8.62;67.68;99835.88;5007909;28;19933;-77
2022/09/07 00:03:05;;;;;;;;;;;;;;;8.64;67.48;99835.91;5006172;28;19926;-78
2022/09/07 00:05:32;;;;;;;;;;;;;;;8.65;67.58;99835.03;4997487;28;19925;-76
2022/09/07 00:07:59;;;;;;;;;;;;;;;8.63;67.24;99837.66;5013240;28;19929;-77
2022/09/07 00:10:26;;;;;;;;;;;;;;;8.59;67.46;99833.25;4996375;28;19930;-78
2022/09/07 00:12:53;;;;;;;;;;;;;;;8.54;68.10;99833.22;5014010;28;19952;-78
2022/09/07 00:15:21;;;;;;;;;;;;;;;8.53;67.92;99830.59;5014863;28;19926;-78
2022/09/07 00:17:48;;;;;;;;;;;;;;;8.52;68.33;99842.75;5013638;28;19926;-78
2022/09/07 00:20:15;;;;;;;;;;;;;;;8.54;68.61;99837.53;5004777;28;20309;-77
2022/09/07 00:22:42;;;;;;;;;;;;;;;8.51;68.54;99825.34;4996115;28;19956;-77
2022/09/07 00:25:09;;;;;;;;;;;;;;;8.49;68.42;99821.84;4996628;28;19926;-78
2022/09/07 00:27:36;;;;;;;;;;;;;;;8.50;68.76;99820.16;4996114;28;20024;-78
2022/09/07 00:30:04;;;;;;;;;;;;;;;8.51;68.78;99821.88;4995768;28;20376;-77
2022/09/07 00:32:31;;;;;;;;;;;;;;;8.49;68.84;99823.59;4986179;28;19926;-78
2022/09/07 00:34:58;;;;;;;;;;;;;;;8.43;69.17;99821.78;4981097;28;19929;-78
2022/09/07 00:37:25;;;;;;;;;;;;;;;8.36;69.51;99818.22;4986078;28;19973;-78
2022/09/07 00:39:52;;;;;;;;;;;;;;;8.30;69.93;99815.56;4959209;28;19933;-79
2022/09/07 00:42:20;;;;;;;;;;;;;;;8.24;70.06;99814.59;4975417;28;19925;-79
2022/09/07 00:44:58;;;;;;;;;;;;;;;8.17;69.95;99813.66;4976458;28;19925;-78
2022/09/07 00:47:25;;;;;;;;;;;;;;;8.12;70.32;99799.72;4976680;28;19961;-78
2022/09/07 00:49:55;;;;;;;;;;;;;;;8.08;70.40;99797.94;4976101;28;19933;-79
2022/09/07 00:52:23;;;;;;;;;;;;;;;8.01;70.59;99794.38;4976445;28;19930;-78
2022/09/07 00:54:53;;;;;;;;;;;;;;;7.96;70.68;99799.53;4990667;28;19925;-77
2022/09/07 00:57:20;;;;;;;;;;;;;;;7.95;70.97;99800.38;4995225;28;20279;-77
2022/09/07 00:59:52;;;;;;;;;;;;;;;7.86;70.93;99791.59;4995409;28;19926;-78
2022/09/07 01:02:19;;;;;;;;;;;;;;;7.86;70.99;99799.38;4995718;28;19932;-77
2022/09/07 01:04:48;;;;;;;;;;;;;;;7.89;70.94;99800.28;4995502;28;19932;-78
2022/09/07 01:07:15;;;;;;;;;;;;;;;7.95;70.92;99792.56;4995127;28;19934;-78
2022/09/07 01:09:42;;;;;;;;;;;;;;;8.00;70.95;99797.81;4995155;28;19925;-77
2022/09/07 01:12:09;;;;;;;;;;;;;;;8.02;70.73;99798.72;4995203;28;20028;-78
2022/09/07 01:14:40;;;;;;;;;;;;;;;8.01;70.72;99789.19;4995345;28;19972;-79
2022/09/07 01:17:22;;;;;;;;;;;;;;;8.03;70.81;99791.81;4995032;28;19925;-78
2022/09/07 01:20:08;;;;;;;;;;;;;;;8.04;70.67;99788.34;4995339;28;19932;-79
2022/09/07 01:22:54;;;;;;;;;;;;;;;8.04;70.72;99788.34;4995692;28;20024;-78
2022/09/07 01:25:40;;;;;;;;;;;;;;;8.06;70.92;99784.03;5017283;28;19906;-79
2022/09/07 01:28:14;;;;;;;;;;;;;;;8.06;70.95;99786.63;4985168;28;19976;-78
2022/09/07 01:30:50;;;;;;;;;;;;;;;8.03;70.78;99778.81;4975695;28;20390;-79
2022/09/07 01:33:23;;;;;;;;;;;;;;;8.02;70.77;99783.09;4975244;28;19933;-78
2022/09/07 01:35:57;;;;;;;;;;;;;;;7.98;71.13;99773.53;4975335;28;19925;-77
2022/09/07 01:38:24;;;;;;;;;;;;;;;7.98;70.82;99770.94;4975818;28;19936;-78
2022/09/07 01:40:56;;;;;;;;;;;;;;;7.98;70.87;99771.81;4975461;28;19932;-77
2022/09/07 01:43:28;;;;;;;;;;;;;;;7.99;70.77;99778.75;4975725;28;19973;-78
2022/09/07 01:45:57;;;;;;;;;;;;;;;8.00;70.85;99771.81;4975475;28;19949;-78
2022/09/07 01:48:25;;;;;;;;;;;;;;;7.99;70.97;99770.94;4975858;28;19934;-79
2022/09/07 01:50:58;;;;;;;;;;;;;;;8.01;71.42;99773.56;4975348;28;19926;-79
2022/09/07 01:53:38;;;;;;;;;;;;;;;8.02;71.39;99771.84;4975012;28;19926;-79
2022/09/07 01:56:19;;;;;;;;;;;;;;;7.95;71.14;99769.16;4974930;28;19925;-78
2022/09/07 01:58:50;;;;;;;;;;;;;;;7.98;71.59;99770.94;4975069;28;19932;-78
2022/09/07 02:01:26;;;;;;;;;;;;;;;7.98;71.58;99777.00;4974487;28;20260;-78
2022/09/07 02:04:01;;;;;;;;;;;;;;;7.98;71.28;99777.00;4974783;28;19930;-77
2022/09/07 02:06:33;;;;;;;;;;;;;;;7.90;71.47;99776.03;4973623;28;19930;-77
2022/09/07 02:09:06;;;;;;;;;;;;;;;7.84;72.03;99770.75;4974569;28;19926;-77
2022/09/07 02:11:37;;;;;;;;;;;;;;;7.83;71.76;99774.22;4975103;28;20028;-77
2022/09/07 02:14:07;;;;;;;;;;;;;;;7.80;71.73;99767.22;4974706;28;19930;-77
2022/09/07 02:16:35;;;;;;;;;;;;;;;7.80;71.70;99761.16;4974999;28;19936;-78
2022/09/07 02:19:09;;;;;;;;;;;;;;;7.74;71.92;99761.06;4974613;28;19948;-78
2022/09/07 02:21:39;;;;;;;;;;;;;;;7.76;71.75;99765.44;4957172;28;19977;-76
2022/09/07 02:24:11;;;;;;;;;;;;;;;7.73;71.82;99754.16;4974215;28;19926;-77
2022/09/07 02:26:39;;;;;;;;;;;;;;;7.69;71.89;99760.16;4974681;28;19926;-77
2022/09/07 02:29:06;;;;;;;;;;;;;;;7.62;71.93;99758.34;4974356;28;19926;-77
2022/09/07 02:31:33;;;;;;;;;;;;;;;7.63;72.34;99762.66;4974976;28;19932;-77
2022/09/07 02:34:04;;;;;;;;;;;;;;;7.60;72.22;99763.50;4957676;28;19969;-77
2022/09/07 02:36:35;;;;;;;;;;;;;;;7.54;72.21;99755.63;4974486;28;19980;-78
2022/09/07 02:39:02;;;;;;;;;;;;;;;7.50;72.48;99756.41;4973260;28;19992;-77
2022/09/07 02:41:29;;;;;;;;;;;;;;;7.46;72.58;99750.28;4957675;28;19972;-77
2022/09/07 02:43:57;;;;;;;;;;;;;;;7.44;72.49;99751.13;4974577;28;20393;-77
2022/09/07 02:46:35;;;;;;;;;;;;;;;7.44;72.70;99756.31;4974561;28;19930;-77
2022/09/07 02:49:05;;;;;;;;;;;;;;;7.44;72.32;99758.94;4974545;28;19930;-78
2022/09/07 02:51:51;;;;;;;;;;;;;;;7.44;72.65;99758.94;4974949;28;20374;-78
2022/09/07 02:54:18;;;;;;;;;;;;;;;7.43;72.45;99752.88;4974612;28;19925;-77
2022/09/07 02:57:01;;;;;;;;;;;;;;;7.42;72.65;99758.03;4980022;28;20267;-78
2022/09/07 02:59:41;;;;;;;;;;;;;;;7.44;72.62;99752.00;4993328;28;20305;-77
2022/09/07 03:02:12;;;;;;;;;;;;;;;7.45;72.27;99750.28;4974373;28;19926;-78
2022/09/07 03:04:58;;;;;;;;;;;;;;;7.41;72.70;99751.09;4990756;28;19926;-78
2022/09/07 03:07:32;;;;;;;;;;;;;;;7.37;72.94;99745.84;5013901;28;19925;-80
2022/09/07 03:10:04;;;;;;;;;;;;;;;7.36;72.78;99751.91;5015367;28;19932;-79
2022/09/07 03:12:43;;;;;;;;;;;;;;;7.38;72.71;99747.59;5000654;28;19980;-78
2022/09/07 03:15:12;;;;;;;;;;;;;;;7.42;72.48;99737.25;4997695;28;19925;-78
2022/09/07 03:17:39;;;;;;;;;;;;;;;7.48;72.79;99738.19;5017777;28;19916;-79
2022/09/07 03:20:06;;;;;;;;;;;;;;;7.48;72.54;99748.59;5001811;28;19964;-78
2022/09/07 03:22:33;;;;;;;;;;;;;;;7.48;72.59;99740.78;4997388;28;19926;-78
2022/09/07 03:25:03;;;;;;;;;;;;;;;7.54;72.50;99750.41;4997234;28;20036;-80
2022/09/07 03:27:31;;;;;;;;;;;;;;;7.62;72.38;99733.19;4997765;28;19932;-79
2022/09/07 03:29:58;;;;;;;;;;;;;;;7.69;72.28;99742.81;4997476;28;20020;-82
2022/09/07 03:32:30;;;;;;;;;;;;;;;7.83;71.83;99734.31;4996948;28;19926;-80
2022/09/07 03:34:58;;;;;;;;;;;;;;;7.88;71.80;99743.94;4996996;28;19951;-80
2022/09/07 03:37:25;;;;;;;;;;;;;;;7.95;71.79;99737.94;4989699;28;19972;-79
2022/09/07 03:39:52;;;;;;;;;;;;;;;8.02;71.26;99735.41;4996468;28;20370;-80
2022/09/07 03:42:19;;;;;;;;;;;;;;;8.05;71.55;99743.28;4989738;28;19941;-80
2022/09/07 03:44:48;;;;;;;;;;;;;;;8.15;71.40;99732.09;4977471;28;19938;-80
2022/09/07 03:47:16;;;;;;;;;;;;;;;8.16;70.93;99728.66;4977250;28;19926;-79
2022/09/07 03:49:42;;;;;;;;;;;;;;;8.15;71.34;99730.38;4977760;28;19926;-76
2022/09/07 03:52:09;;;;;;;;;;;;;;;8.24;71.51;99733.91;4977672;28;19933;-78
2022/09/07 03:54:37;;;;;;;;;;;;;;;8.33;71.06;99734.03;4991859;28;19926;-80
2022/09/07 03:57:05;;;;;;;;;;;;;;;8.45;70.27;99725.50;4996618;28;19940;-77
2022/09/07 03:59:32;;;;;;;;;;;;;;;8.45;70.47;99734.16;4984852;28;19930;-78
2022/09/07 04:02:00;;;;;;;;;;;;;;;8.42;70.77;99731.56;4977259;28;19932;-81
2022/09/07 04:04:27;;;;;;;;;;;;;;;8.45;70.40;99731.56;4977402;28;20016;-81
2022/09/07 04:06:57;;;;;;;;;;;;;;;8.48;70.58;99722.94;4977219;28;19930;-80
2022/09/07 04:09:23;;;;;;;;;;;;;;;8.48;70.61;99729.00;4976574;28;19926;-78
2022/09/07 04:11:50;;;;;;;;;;;;;;;8.55;70.38;99723.00;4959556;28;19926;-78
2022/09/07 04:14:17;;;;;;;;;;;;;;;8.70;70.64;99718.78;4959532;28;19926;-79
2022/09/07 04:16:45;;;;;;;;;;;;;;;8.76;69.67;99716.25;4977081;28;20037;-80
2022/09/07 04:19:11;;;;;;;;;;;;;;;8.77;70.15;99723.19;4977815;28;20021;-80
2022/09/07 04:21:38;;;;;;;;;;;;;;;8.85;70.20;99718.91;4981939;28;19925;-81
2022/09/07 04:24:06;;;;;;;;;;;;;;;8.89;69.24;99720.69;4985136;28;19930;-80
2022/09/07 04:26:34;;;;;;;;;;;;;;;8.95;69.58;99720.75;4986178;28;20346;-82
2022/09/07 04:29:02;;;;;;;;;;;;;;;8.91;69.65;99720.72;4984283;28;19926;-77
2022/09/07 04:31:31;;;;;;;;;;;;;;;8.89;69.85;99725.03;4984669;28;19932;-79
2022/09/07 04:33:58;;;;;;;;;;;;;;;8.93;69.70;99717.25;4984638;28;19926;-81
2022/09/07 04:36:26;;;;;;;;;;;;;;;9.03;69.47;99723.38;4985904;28;19930;-80
2022/09/07 04:38:54;;;;;;;;;;;;;;;9.01;69.22;99726.00;4985151;28;19972;-79
2022/09/07 04:41:21;;;;;;;;;;;;;;;8.95;69.25;99727.69;4984984;28;19933;-78
2022/09/07 04:43:51;;;;;;;;;;;;;;;8.89;69.69;99727.63;4983562;28;20342;-77
2022/09/07 04:46:20;;;;;;;;;;;;;;;8.88;69.95;99725.88;4983585;28;19972;-79
2022/09/07 04:48:48;;;;;;;;;;;;;;;8.88;69.55;99724.13;4966319;28;19926;-78
2022/09/07 04:51:15;;;;;;;;;;;;;;;8.84;69.42;99719.78;4984356;28;20386;-80
2022/09/07 04:53:49;;;;;;;;;;;;;;;8.85;69.65;99712.84;4985474;28;19937;-76
2022/09/07 04:56:17;;;;;;;;;;;;;;;8.84;69.48;99704.16;4981965;28;19932;-79
2022/09/07 04:58:45;;;;;;;;;;;;;;;8.76;69.82;99701.50;4983388;28;19930;-79
2022/09/07 05:01:13;;;;;;;;;;;;;;;8.74;69.73;99702.34;4984766;28;19925;-80
2022/09/07 05:03:40;;;;;;;;;;;;;;;8.90;70.08;99704.19;4982276;28;20610;-79
2022/09/07 05:06:07;;;;;;;;;;;;;;;9.11;69.09;99702.59;4985140;28;19953;-81
2022/09/07 05:08:35;;;;;;;;;;;;;;;9.25;68.83;99707.91;4985870;28;19979;-79
2022/09/07 05:11:02;;;;;;;;;;;;;;;9.29;68.52;99692.31;5002015;28;19926;-78
2022/09/07 05:13:30;;;;;;;;;;;;;;;9.49;68.69;99700.22;4983982;28;19926;-80
2022/09/07 05:15:58;;;;;;;;;;;;;;;9.66;68.10;99705.53;4982576;28;19926;-78
2022/09/07 05:18:25;;;;;;;;;;;;;;;9.79;67.88;99694.28;4984461;28;20162;-79
2022/09/07 05:20:53;;;;;;;;;;;;;;;9.80;67.79;99697.75;4985400;28;19925;-79
2022/09/07 05:23:22;;;;;;;;;;;;;;;9.96;67.29;99696.97;4988232;28;19925;-79
2022/09/07 05:25:49;;;;;;;;;;;;;;;10.16;66.83;99699.63;4982524;28;19933;-79
2022/09/07 05:28:16;;;;;;;;;;;;;;;10.32;66.60;99694.44;4982751;28;20035;-77
2022/09/07 05:30:45;;;;;;;;;;;;;;;10.24;66.34;99697.91;4984213;28;20427;-77
2022/09/07 05:33:33;;;;;;;;;;;;;;;10.22;67.22;99696.16;4983200;28;19925;-77
2022/09/07 05:36:21;;;;;;;;;;;;;;;10.26;66.49;99695.28;4985134;28;19926;-79
2022/09/07 05:38:48;;;;;;;;;;;;;;;10.19;66.56;99691.78;4985288;28;19933;-77
2022/09/07 05:41:17;;;;;;;;;;;;;;;10.17;66.55;99701.34;4983375;28;19941;-79
2022/09/07 05:43:47;;;;;;;;;;;;;;;10.19;66.27;99702.22;4985753;28;19988;-77
2022/09/07 05:46:35;;;;;;;;;;;;;;;10.34;65.95;99697.94;4983956;28;19968;-79
2022/09/07 05:49:02;;;;;;;;;;;;;;;10.65;66.26;99697.09;4972124;28;19926;-77
2022/09/07 05:51:29;;;;;;;;;;;;;;;11.15;64.95;99695.34;4982590;28;19973;-78
2022/09/07 05:53:56;;;;;;;;;;;;;;;11.50;63.93;99688.28;4982307;28;19930;-80
2022/09/07 05:56:23;;;;;;;;;;;;;;;11.63;63.64;99684.72;4983669;28;19936;-78
2022/09/07 05:58:50;;;;;;;;;;;;;;;11.74;63.36;99687.31;4982196;28;19933;-77
2022/09/07 06:01:17;;;;;;;;;;;;;;;11.82;62.98;99681.16;4983010;28;19926;-79
2022/09/07 06:03:44;;;;;;;;;;;;;;;11.72;62.66;99687.31;4984265;28;19941;-78
2022/09/07 06:06:16;;;;;;;;;;;;;;;11.53;62.72;99691.75;4985101;28;19976;-76
2022/09/07 06:08:44;;;;;;;;;;;;;;;11.33;63.29;99689.19;4983402;28;19932;-80
2022/09/07 06:11:13;;;;;;;;;;;;;;;11.24;63.41;99682.22;4984578;28;19926;-80
2022/09/07 06:13:40;;;;;;;;;;;;;;;11.36;63.26;99681.34;4983987;28;20032;-79
2022/09/07 06:16:08;;;;;;;;;;;;;;;11.41;63.01;99686.56;4981928;28;19964;-78
2022/09/07 06:18:37;;;;;;;;;;;;;;;11.46;63.21;99687.41;4982579;28;20329;-78
2022/09/07 06:21:06;;;;;;;;;;;;;;;11.77;62.92;99685.56;4985211;28;19926;-79
2022/09/07 06:23:34;;;;;;;;;;;;;;;11.96;62.20;99680.25;4982591;28;19951;-80
2022/09/07 06:26:01;;;;;;;;;;;;;;;12.20;61.68;99684.50;4982479;28;19932;-78
2022/09/07 06:28:29;;;;;;;;;;;;;;;12.34;61.52;99671.31;4983374;28;20365;-78
2022/09/07 06:31:06;;;;;;;;;;;;;;;12.56;60.97;99667.66;4980883;28;20464;-80
2022/09/07 06:33:33;;;;;;;;;;;;;;;12.74;60.30;99664.03;4983626;28;19988;-78
2022/09/07 06:36:03;;;;;;;;;;;;;;;13.10;60.17;99672.44;4983303;28;20381;-77
2022/09/07 06:38:31;;;;;;;;;;;;;;;13.17;58.69;99668.00;4983951;28;19926;-78
2022/09/07 06:41:11;;;;;;;;;;;;;;;12.99;58.91;99662.06;4980865;28;20301;-77
2022/09/07 06:43:58;;;;;;;;;;;;;;;13.13;58.14;99671.53;4983247;28;19925;-80
2022/09/07 06:46:25;;;;;;;;;;;;;;;13.29;58.20;99668.78;4983616;28;20352;-80
2022/09/07 06:49:13;;;;;;;;;;;;;;;14.02;57.35;99679.22;4979540;28;19933;-79
2022/09/07 06:51:40;;;;;;;;;;;;;;;14.16;56.33;99676.44;4981581;28;20432;-81
2022/09/07 06:54:08;;;;;;;;;;;;;;;14.02;55.94;99678.38;4976437;28;19933;-77
2022/09/07 06:56:55;;;;;;;;;;;;;;;13.81;56.22;99680.41;4980294;28;20370;-77
2022/09/07 06:59:22;;;;;;;;;;;;;;;13.78;56.67;99674.31;4979944;28;19926;-80
2022/09/07 07:01:48;;;;;;;;;;;;;;;14.03;56.26;99670.47;4979902;28;19926;-79
2022/09/07 07:04:16;;;;;;;;;;;;;;;14.32;56.06;99674.44;4985645;28;19926;-77
2022/09/07 07:06:43;;;;;;;;;;;;;;;14.26;55.72;99666.63;4989880;28;19926;-77
2022/09/07 07:09:11;;;;;;;;;;;;;;;13.92;56.02;99668.00;4983756;28;19973;-78
2022/09/07 07:11:38;;;;;;;;;;;;;;;13.83;56.72;99668.13;4982357;28;19926;-80
2022/09/07 07:14:05;;;;;;;;;;;;;;;14.00;56.68;99662.63;4984694;28;19936;-78
2022/09/07 07:16:34;;;;;;;;;;;;;;;14.26;55.44;99662.28;4981796;28;19925;-77
2022/09/07 07:19:01;;;;;;;;;;;;;;;14.07;55.82;99666.94;4983428;28;19932;-77
2022/09/07 07:21:28;;;;;;;;;;;;;;;13.59;56.02;99663.16;4981386;28;20440;-79
2022/09/07 07:24:15;;;;;;;;;;;;;;;13.45;56.84;99669.47;4982370;28;19926;-77
2022/09/07 07:26:47;;;;;;;;;;;;;;;13.55;56.45;99664.09;4981598;28;19933;-78
2022/09/07 07:29:14;;;;;;;;;;;;;;;13.54;56.80;99662.38;4982694;28;19925;-78
2022/09/07 07:31:45;;;;;;;;;;;;;;;13.44;56.85;99658.97;4981047;28;19969;-78
2022/09/07 07:34:13;;;;;;;;;;;;;;;13.33;56.81;99661.72;4981946;28;19926;-76
2022/09/07 07:36:40;;;;;;;;;;;;;;;13.56;56.40;99652.72;4982017;28;19980;-77
2022/09/07 07:39:08;;;;;;;;;;;;;;;13.67;56.19;99658.69;4989879;28;19925;-77
2022/09/07 07:41:55;;;;;;;;;;;;;;;13.54;56.05;99650.13;4980903;28;19926;-78
2022/09/07 07:44:27;;;;;;;;;;;;;;;13.41;56.64;99638.03;4982616;28;19948;-78
2022/09/07 07:46:54;;;;;;;;;;;;;;;13.55;56.08;99644.00;4980969;28;19980;-78
2022/09/07 07:49:21;;;;;;;;;;;;;;;13.61;56.49;99649.13;4978826;28;19925;-78
2022/09/07 07:51:48;;;;;;;;;;;;;;;13.78;56.09;99651.56;4988312;28;20381;-79
2022/09/07 07:54:35;;;;;;;;;;;;;;;14.07;55.31;99651.16;4984705;28;20020;-76
2022/09/07 07:57:05;;;;;;;;;;;;;;;14.25;54.57;99643.91;4982899;28;19926;-78
2022/09/07 07:59:33;;;;;;;;;;;;;;;14.33;54.67;99644.66;4979924;28;19948;-77
2022/09/07 08:02:03;;;;;;;;;;;;;;;14.17;54.79;99646.63;4979806;28;19926;-77
2022/09/07 08:04:32;;;;;;;;;;;;;;;14.12;54.79;99651.09;4980087;28;20021;-79
2022/09/07 08:06:59;;;;;;;;;;;;;;;14.31;54.60;99642.06;4981754;28;19968;-78
2022/09/07 08:09:26;;;;;;;;;;;;;;;14.61;54.17;99636.38;4996530;28;19932;-79
2022/09/07 08:11:53;;;;;;;;;;;;;;;14.84;53.77;99636.84;5000548;28;19953;-79
2022/09/07 08:14:20;;;;;;;;;;;;;;;14.89;53.80;99631.50;5005593;28;19932;-81
2022/09/07 08:16:47;;;;;;;;;;;;;;;14.88;53.35;99630.63;4999485;28;19957;-78
2022/09/07 08:19:14;;;;;;;;;;;;;;;14.83;52.65;99636.88;4983864;28;20349;-81
2022/09/07 08:21:41;;;;;;;;;;;;;;;14.82;52.36;99636.00;4983696;28;19976;-80
2022/09/07 08:24:08;;;;;;;;;;;;;;;14.96;52.01;99627.84;4982161;28;19926;-81
2022/09/07 08:26:35;;;;;;;;;;;;;;;15.12;51.63;99617.91;4985876;28;19964;-77
2022/09/07 08:29:02;;;;;;;;;;;;;;;15.08;51.63;99622.38;4984470;28;19960;-82
2022/09/07 08:31:29;;;;;;;;;;;;;;;15.24;52.00;99614.19;4986485;28;19988;-80
2022/09/07 08:33:56;;;;;;;;;;;;;;;15.19;51.66;99609.03;4985019;28;19926;-82
2022/09/07 08:36:23;;;;;;;;;;;;;;;15.12;52.00;99608.28;4984514;28;20318;-79
2022/09/07 08:38:50;;;;;;;;;;;;;;;14.88;52.10;99614.84;4985681;28;19930;-79
2022/09/07 08:41:22;;;;;;;;;;;;;;;14.70;52.06;99610.78;4984136;28;19933;-79
2022/09/07 08:43:50;;;;;;;;;;;;;;;14.61;52.75;99613.56;4983555;28;19959;-79
2022/09/07 08:46:17;;;;;;;;;;;;;;;14.53;52.71;99613.66;4984611;28;19991;-79
2022/09/07 08:48:44;;;;;;;;;;;;;;;14.44;52.71;99616.44;4984020;28;19972;-78
2022/09/07 08:51:33;;;;;;;;;;;;;;;14.45;52.44;99615.53;4987253;28;19933;-79
2022/09/07 08:54:00;;;;;;;;;;;;;;;14.44;52.61;99603.31;4981845;28;19925;-77
2022/09/07 08:56:30;;;;;;;;;;;;;;;14.41;52.45;99610.38;4984820;28;19980;-78
2022/09/07 08:59:03;;;;;;;;;;;;;;;14.39;52.34;99607.78;4988928;28;20025;-79
2022/09/07 09:01:39;;;;;;;;;;;;;;;14.28;52.60;99607.97;4983254;28;19968;-79
2022/09/07 09:04:12;;;;;;;;;;;;;;;14.32;52.63;99606.13;4982848;28;19926;-77
2022/09/07 09:07:06;;;;;;;;;;;;;;;14.30;52.57;99614.06;4982974;28;19926;-80
2022/09/07 09:09:36;;;;;;;;;;;;;;;14.26;52.19;99600.97;4985165;28;19926;-78
2022/09/07 09:12:10;;;;;;;;;;;;;;;14.16;52.21;99596.78;4967775;28;19930;-79
2022/09/07 09:14:56;;;;;;;;;;;;;;;14.17;52.57;99603.75;4984201;28;19962;-79
2022/09/07 09:17:31;;;;;;;;;;;;;;;14.32;52.33;99607.00;4984101;28;19930;-79
2022/09/07 09:20:17;;;;;;;;;;;;;;;14.36;51.69;99602.56;4983750;28;19985;-76
2022/09/07 09:22:44;;;;;;;;;;;;;;;14.42;51.61;99597.22;4986274;28;19926;-78
2022/09/07 09:25:12;;;;;;;;;;;;;;;14.26;51.89;99601.84;4983437;28;20073;-77
2022/09/07 09:27:39;;;;;;;;;;;;;;;14.13;52.23;99595.94;4988649;28;19925;-82
2022/09/07 09:30:13;;;;;;;;;;;;;;;14.11;52.39;99589.81;4985287;28;19926;-79
2022/09/07 09:32:42;;;;;;;;;;;;;;;14.27;51.95;99589.59;4981148;28;19926;-78
2022/09/07 09:35:14;;;;;;;;;;;;;;;14.37;52.08;99591.19;4985440;28;19926;-77
2022/09/07 09:37:42;;;;;;;;;;;;;;;14.47;51.54;99581.38;4980564;28;19980;-79
2022/09/07 09:40:20;;;;;;;;;;;;;;;14.47;51.37;99584.00;4979761;28;19961;-79
2022/09/07 09:42:57;;;;;;;;;;;;;;;14.54;51.15;99589.13;4981848;28;19997;-79
2022/09/07 09:45:26;;;;;;;;;;;;;;;14.54;51.23;99583.00;4977800;28;20354;-76
2022/09/07 09:47:56;;;;;;;;;;;;;;;14.46;50.91;99587.53;4976166;28;19926;-79
2022/09/07 09:50:26;;;;;;;;;;;;;;;14.34;51.16;99585.94;4971927;28;19932;-76
2022/09/07 09:53:35;;;;;;;;;;;;;;;14.17;51.21;99577.47;4973929;28;19926;-75
2022/09/07 09:56:03;;;;;;;;;;;;;;;13.86;51.48;99586.69;4985746;28;19929;-77
2022/09/07 09:58:30;;;;;;;;;;;;;;;13.75;51.44;99585.13;4981600;28;20024;-76
2022/09/07 10:01:21;;;;;;;;;;;;;;;13.54;51.16;99591.53;4983994;28;19937;-77
2022/09/07 10:03:51;;;;;;;;;;;;;;;13.34;51.47;99584.78;4982709;28;20020;-78
2022/09/07 10:06:23;;;;;;;;;;;;;;;13.25;51.40;99588.34;4969664;28;20028;-75
2022/09/07 10:08:52;;;;;;;;;;;;;;;13.24;51.05;99589.22;4981422;28;19926;-77
2022/09/07 10:11:37;;;;;;;;;;;;;;;13.40;50.98;99589.06;4983780;28;19925;-78
2022/09/07 10:14:24;;;;;;;;;;;;;;;13.77;50.32;99586.81;4982408;28;20362;-76
2022/09/07 10:16:51;;;;;;;;;;;;;;;13.94;49.81;99583.97;4981523;28;19992;-77
2022/09/07 10:19:28;;;;;;;;;;;;;;;14.17;49.70;99582.72;4983746;28;20417;-78
2022/09/07 10:21:59;;;;;;;;;;;;;;;14.25;48.76;99578.22;4983973;28;19958;-79
2022/09/07 10:24:30;;;;;;;;;;;;;;;14.14;48.26;99581.03;4965804;28;20342;-78
2022/09/07 10:26:57;;;;;;;;;;;;;;;14.16;48.31;99588.91;4983759;28;20365;-80
2022/09/07 10:29:27;;;;;;;;;;;;;;;14.28;47.92;99580.78;4982295;28;20381;-78
2022/09/07 10:32:01;;;;;;;;;;;;;;;14.47;47.69;99586.63;4981020;28;19926;-78
2022/09/07 10:34:34;;;;;;;;;;;;;;;14.64;47.79;99586.38;4982130;28;20279;-79
2022/09/07 10:37:05;;;;;;;;;;;;;;;14.89;47.36;99579.78;4984404;28;19926;-80
2022/09/07 10:39:38;;;;;;;;;;;;;;;15.08;46.61;99587.31;4981974;28;19926;-80
2022/09/07 10:42:08;;;;;;;;;;;;;;;15.12;47.03;99586.34;4982495;28;19925;-77
2022/09/07 10:44:38;;;;;;;;;;;;;;;15.21;46.43;99583.53;4984311;28;20317;-76
2022/09/07 10:47:11;;;;;;;;;;;;;;;15.13;46.64;99577.56;4985700;28;20385;-77
2022/09/07 10:49:41;;;;;;;;;;;;;;;15.09;46.31;99576.75;4982723;28;19992;-78
2022/09/07 10:52:36;;;;;;;;;;;;;;;15.00;46.60;99574.31;4980870;28;19953;-80
2022/09/07 10:55:06;;;;;;;;;;;;;;;14.95;46.22;99579.66;4986334;28;20357;-78
2022/09/07 10:57:36;;;;;;;;;;;;;;;14.91;46.18;99583.25;4980133;28;20381;-79
2022/09/07 11:00:13;;;;;;;;;;;;;;;14.97;46.06;99570.84;4983098;28;19933;-77
2022/09/07 11:02:59;;;;;;;;;;;;;;;15.03;45.92;99568.09;4984655;28;19973;-77
2022/09/07 11:05:46;;;;;;;;;;;;;;;15.17;45.35;99573.97;4966491;28;20020;-77
2022/09/07 11:08:16;;;;;;;;;;;;;;;15.42;45.18;99568.19;4974255;28;20406;-78
2022/09/07 11:10:56;;;;;;;;;;;;;;;15.77;44.85;99562.22;4976519;28;19970;-76
2022/09/07 11:13:27;;;;;;;;;;;;;;;15.82;44.16;99565.59;4982416;28;19985;-78
2022/09/07 11:15:56;;;;;;;;;;;;;;;15.62;43.99;99565.16;4962549;28;19997;-77
2022/09/07 11:18:49;;;;;;;;;;;;;;;15.59;44.73;99565.22;4985261;28;19965;-75
2022/09/07 11:21:19;;;;;;;;;;;;;;;15.66;44.52;99558.91;4982679;28;19948;-80
2022/09/07 11:24:14;;;;;;;;;;;;;;;15.46;44.48;99573.34;4980928;28;19952;-77
2022/09/07 11:26:50;;;;;;;;;;;;;;;15.27;45.05;99565.00;4984636;28;20314;-77
2022/09/07 11:29:40;;;;;;;;;;;;;;;15.29;45.44;99579.00;4968250;28;19932;-78
2022/09/07 11:32:17;;;;;;;;;;;;;;;15.34;45.11;99574.50;4990294;28;19926;-78
2022/09/07 11:34:49;;;;;;;;;;;;;;;15.27;44.88;99565.00;4986810;28;20031;-77
2022/09/07 11:37:18;;;;;;;;;;;;;;;15.00;45.56;99571.69;4988832;28;20302;-78
2022/09/07 11:39:54;;;;;;;;;;;;;;;14.94;45.87;99572.66;4986411;28;19926;-76
2022/09/07 11:42:21;;;;;;;;;;;;;;;15.12;45.90;99576.72;4982543;28;20333;-77
2022/09/07 11:45:10;;;;;;;;;;;;;;;15.10;45.49;99574.97;4984721;28;20345;-77
2022/09/07 11:47:41;;;;;;;;;;;;;;;14.93;45.83;99572.69;4988615;28;20016;-78
2022/09/07 11:50:29;;;;;;;;;;;;;;;14.90;46.18;99576.22;4978630;28;19925;-77
2022/09/07 11:52:59;;;;;;;;;;;;;;;14.60;46.80;99572.41;4988831;28;20052;-77
2022/09/07 11:55:28;;;;;;;;;;;;;;;14.40;46.85;99583.22;4983830;28;20139;-76
2022/09/07 11:57:58;;;;;;;;;;;;;;;14.17;47.44;99577.47;4984347;28;19933;-76
2022/09/07 12:00:35;;;;;;;;;;;;;;;13.84;48.16;99579.72;4986357;28;19930;-78
2022/09/07 12:03:22;;;;;;;;;;;;;;;13.60;48.61;99594.06;4985117;28;19926;-78
2022/09/07 12:05:55;;;;;;;;;;;;;;;13.43;49.57;99591.66;4980147;28;20294;-76
2022/09/07 12:08:28;;;;;;;;;;;;;;;13.44;49.72;99593.38;4987673;28;20345;-77
2022/09/07 12:11:10;;;;;;;;;;;;;;;13.38;50.47;99596.06;4986588;28;19929;-76
2022/09/07 12:13:58;;;;;;;;;;;;;;;13.28;50.77;99588.31;4986675;28;19972;-79
2022/09/07 12:16:28;;;;;;;;;;;;;;;13.16;51.69;99593.66;4985408;28;19933;-77
2022/09/07 12:19:13;;;;;;;;;;;;;;;13.15;51.92;99594.56;4985978;28;19930;-77
2022/09/07 12:21:42;;;;;;;;;;;;;;;12.98;52.81;99600.00;4982083;28;20048;-81
2022/09/07 12:24:25;;;;;;;;;;;;;;;12.84;53.42;99594.91;4990464;28;20386;-75
2022/09/07 12:26:53;;;;;;;;;;;;;;;12.70;53.80;99600.28;4982128;28;19932;-78
2022/09/07 12:29:27;;;;;;;;;;;;;;;12.61;54.49;99607.38;4986689;28;19961;-78
2022/09/07 12:31:59;;;;;;;;;;;;;;;12.47;54.98;99595.22;4984772;28;20009;-77
2022/09/07 12:34:52;;;;;;;;;;;;;;;12.24;55.79;99608.53;4984593;28;19937;-78
2022/09/07 12:37:27;;;;;;;;;;;;;;;11.96;56.96;99602.63;4984148;28;19929;-76
2022/09/07 12:40:17;;;;;;;;;;;;;;;11.80;57.89;99614.00;4969684;28;20287;-78
2022/09/07 12:43:05;;;;;;;;;;;;;;;11.57;58.79;99609.78;4960651;28;19933;-76
2022/09/07 12:45:41;;;;;;;;;;;;;;;11.43;59.28;99628.13;4985530;28;20026;-78
2022/09/07 12:48:08;;;;;;;;;;;;;;;11.33;60.02;99615.09;4985169;28;19932;-77
2022/09/07 12:50:54;;;;;;;;;;;;;;;11.28;59.94;99605.53;4991471;28;20008;-75
2022/09/07 12:53:35;;;;;;;;;;;;;;;11.17;60.64;99603.84;4967789;28;20419;-76
2022/09/07 12:56:11;;;;;;;;;;;;;;;11.16;60.92;99602.09;4987727;28;19932;-77
2022/09/07 12:58:44;;;;;;;;;;;;;;;11.15;60.90;99603.84;4984361;28;19930;-78
2022/09/07 13:01:10;;;;;;;;;;;;;;;11.11;61.50;99599.47;4983300;28;19937;-77
2022/09/07 13:03:44;;;;;;;;;;;;;;;11.07;61.60;99602.97;4983462;28;20382;-76
2022/09/07 13:06:33;;;;;;;;;;;;;;;11.07;61.88;99601.22;4983959;28;19925;-76
2022/09/07 13:09:20;;;;;;;;;;;;;;;11.21;61.61;99601.19;4983988;28;19980;-79
2022/09/07 13:11:47;;;;;;;;;;;;;;;11.33;61.95;99591.56;4983805;28;19926;-78
2022/09/07 13:14:14;;;;;;;;;;;;;;;11.40;61.37;99591.53;4980740;28;20406;-79